Time;durP1;ratioP1;P1;durP2;ratioP2;P2;SDS_P1;SDS_P2;PMS_P1;PMS_P2;Temp;Humidity;BMP_temperature;BMP_pressure;BME280_temperature;BME280_humidity;BME280_pressure;Samples;Min_cycle;Max_cycle;Signal;HPM_P1;HPM_P2
2023/10/11 00:00:45;;;;;;;41.42;10.70;;;;;;;;;;5912225;28;20048;-73
2023/10/11 00:03:45;;;;;;;17.73;9.30;;;;;;;;;;5909483;28;20393;-74
2023/10/11 00:06:37;;;;;;;29.25;11.48;;;;;;;;;;5911206;28;20045;-75
2023/10/11 00:09:38;;;;;;;57.00;10.95;;;;;;;;;;5911163;28;20056;-73
2023/10/11 00:12:34;;;;;;;46.97;10.55;;;;;;;;;;5921514;28;20052;-73
2023/10/11 00:15:31;;;;;;;33.83;10.75;;;;;;;;;;5910374;28;20052;-73
2023/10/11 00:18:30;;;;;;;16.27;10.77;;;;;;;;;;5910997;28;20052;-74
2023/10/11 00:21:35;;;;;;;24.17;8.80;;;;;;;;;;5893511;28;20546;-74
2023/10/11 00:24:28;;;;;;;30.17;9.55;;;;;;;;;;5911130;28;20485;-73
2023/10/11 00:27:19;;;;;;;14.18;8.77;;;;;;;;;;5909828;28;20499;-73
2023/10/11 00:30:11;;;;;;;13.40;6.28;;;;;;;;;;5909563;28;20496;-73
2023/10/11 00:33:03;;;;;;;10.23;7.00;;;;;;;;;;5904393;28;20049;-74
2023/10/11 00:35:56;;;;;;;11.75;7.35;;;;;;;;;;5903717;28;20507;-73
2023/10/11 00:38:48;;;;;;;10.77;6.80;;;;;;;;;;5895734;28;20041;-74
2023/10/11 00:41:40;;;;;;;11.70;7.40;;;;;;;;;;5899562;28;20134;-73
2023/10/11 00:44:32;;;;;;;21.52;8.07;;;;;;;;;;5906173;28;20052;-75
2023/10/11 00:47:25;;;;;;;7.22;6.47;;;;;;;;;;5886031;28;20088;-74
2023/10/11 00:50:15;;;;;;;8.75;6.47;;;;;;;;;;5910046;28;20040;-75
2023/10/11 00:53:09;;;;;;;12.88;7.82;;;;;;;;;;5891665;28;20044;-75
2023/10/11 00:56:05;;;;;;;16.92;7.85;;;;;;;;;;5910221;28;20509;-73
2023/10/11 00:58:56;;;;;;;29.23;8.15;;;;;;;;;;5932747;28;20074;-74
2023/10/11 01:01:46;;;;;;;11.43;7.65;;;;;;;;;;5894684;28;20049;-72
2023/10/11 01:04:43;;;;;;;8.07;6.70;;;;;;;;;;5887030;28;20132;-75
2023/10/11 01:07:37;;;;;;;16.13;8.75;;;;;;;;;;5919131;28;20186;-72
2023/10/11 01:10:29;;;;;;;10.65;6.80;;;;;;;;;;5925393;28;20045;-72
2023/10/11 01:13:20;;;;;;;11.05;7.00;;;;;;;;;;5910154;28;20191;-75
2023/10/11 01:16:14;;;;;;;10.75;6.32;;;;;;;;;;5914087;28;20325;-74
2023/10/11 01:19:11;;;;;;;13.13;5.88;;;;;;;;;;5933744;28;20410;-73
2023/10/11 01:22:03;;;;;;;13.98;7.10;;;;;;;;;;5916541;28;20049;-74
2023/10/11 01:24:55;;;;;;;9.68;6.00;;;;;;;;;;5910615;28;20483;-75
2023/10/11 01:27:47;;;;;;;10.63;5.88;;;;;;;;;;5917603;28;20045;-74
2023/10/11 01:30:37;;;;;;;16.73;8.25;;;;;;;;;;5909262;28;20075;-75
2023/10/11 01:33:28;;;;;;;10.18;5.78;;;;;;;;;;5910017;28;20045;-73
2023/10/11 01:36:21;;;;;;;15.13;6.65;;;;;;;;;;5909512;28;20045;-73
2023/10/11 01:39:13;;;;;;;8.30;5.70;;;;;;;;;;5909721;28;20043;-73
2023/10/11 01:42:06;;;;;;;12.23;7.53;;;;;;;;;;5900519;28;20044;-74
2023/10/11 01:44:57;;;;;;;15.55;6.93;;;;;;;;;;5887083;28;20044;-73
2023/10/11 01:47:50;;;;;;;29.75;6.18;;;;;;;;;;5885896;28;20052;-73
2023/10/11 01:50:41;;;;;;;9.55;6.05;;;;;;;;;;5886064;28;20419;-73
2023/10/11 01:53:32;;;;;;;10.57;5.60;;;;;;;;;;5886523;28;20056;-73
2023/10/11 01:56:26;;;;;;;15.43;5.93;;;;;;;;;;5885973;28;20068;-74
2023/10/11 01:59:17;;;;;;;7.20;6.13;;;;;;;;;;5885522;28;20515;-72
2023/10/11 02:02:10;;;;;;;11.38;5.85;;;;;;;;;;5885766;28;20060;-72
2023/10/11 02:05:05;;;;;;;5.20;4.70;;;;;;;;;;5889441;28;20052;-72
2023/10/11 02:07:55;;;;;;;8.05;6.05;;;;;;;;;;5887537;28;20057;-72
2023/10/11 02:10:46;;;;;;;20.35;8.32;;;;;;;;;;5920758;28;20040;-72
2023/10/11 02:13:39;;;;;;;6.95;4.75;;;;;;;;;;5914005;28;20526;-72
2023/10/11 02:16:32;;;;;;;12.25;7.13;;;;;;;;;;5913868;28;20168;-74
2023/10/11 02:19:23;;;;;;;8.55;6.43;;;;;;;;;;5912237;28;20458;-74
2023/10/11 02:22:18;;;;;;;10.60;5.70;;;;;;;;;;5895685;28;20071;-74
2023/10/11 02:25:13;;;;;;;11.88;4.97;;;;;;;;;;5913041;28;20051;-72
2023/10/11 02:28:09;;;;;;;9.07;5.90;;;;;;;;;;5906483;28;20051;-72
2023/10/11 02:30:59;;;;;;;7.43;5.88;;;;;;;;;;5907789;28;20040;-73
2023/10/11 02:33:51;;;;;;;8.50;4.75;;;;;;;;;;5898543;28;20052;-73
2023/10/11 02:36:44;;;;;;;8.48;6.38;;;;;;;;;;5912140;28;20442;-73
2023/10/11 02:39:34;;;;;;;9.32;6.10;;;;;;;;;;5911800;28;20380;-72
2023/10/11 02:42:25;;;;;;;5.38;3.55;;;;;;;;;;5909011;28;20049;-72
2023/10/11 02:45:21;;;;;;;10.55;4.93;;;;;;;;;;5902443;28;20052;-73
2023/10/11 02:48:12;;;;;;;8.65;5.60;;;;;;;;;;5899822;28;20072;-74
2023/10/11 02:51:13;;;;;;;9.32;5.00;;;;;;;;;;5895837;28;20064;-73
2023/10/11 02:54:04;;;;;;;5.78;5.18;;;;;;;;;;5904439;28;20052;-72
2023/10/11 02:56:57;;;;;;;7.85;5.80;;;;;;;;;;5873903;28;20044;-74
2023/10/11 02:59:51;;;;;;;6.43;4.88;;;;;;;;;;5888652;28;20128;-73
2023/10/11 03:02:45;;;;;;;6.90;4.88;;;;;;;;;;5888138;28;20053;-73
2023/10/11 03:05:37;;;;;;;9.05;6.15;;;;;;;;;;5890719;28;20040;-73
2023/10/11 03:08:28;;;;;;;5.47;4.63;;;;;;;;;;5912741;28;20060;-72
2023/10/11 03:11:19;;;;;;;9.52;6.20;;;;;;;;;;5912035;28;20055;-72
2023/10/11 03:14:12;;;;;;;8.68;5.95;;;;;;;;;;5912768;28;20044;-73
2023/10/11 03:17:06;;;;;;;7.70;5.45;;;;;;;;;;5911257;28;20045;-73
2023/10/11 03:19:56;;;;;;;8.05;5.38;;;;;;;;;;5880757;28;20135;-73
2023/10/11 03:22:51;;;;;;;6.80;4.55;;;;;;;;;;5910406;28;20051;-72
2023/10/11 03:25:49;;;;;;;8.48;6.07;;;;;;;;;;5911908;28;20036;-72
2023/10/11 03:28:41;;;;;;;11.63;6.25;;;;;;;;;;5911987;28;20437;-73
2023/10/11 03:31:42;;;;;;;7.03;5.43;;;;;;;;;;5911457;28;20056;-72
2023/10/11 03:34:33;;;;;;;11.45;6.38;;;;;;;;;;5911716;28;20499;-74
2023/10/11 03:37:27;;;;;;;11.65;5.25;;;;;;;;;;5911305;28;20058;-72
2023/10/11 03:40:34;;;;;;;8.13;5.10;;;;;;;;;;5911213;28;20041;-72
2023/10/11 03:43:26;;;;;;;9.43;5.13;;;;;;;;;;5903600;28;20052;-72
2023/10/11 03:46:22;;;;;;;7.05;4.40;;;;;;;;;;5911539;28;20071;-73
2023/10/11 03:52:22;;;;;;;7.72;5.32;;;;;;;;;;5903006;28;20045;-74
2023/10/11 03:55:13;;;;;;;7.28;4.40;;;;;;;;;;5910416;28;20515;-72
2023/10/11 03:58:04;;;;;;;5.22;4.57;;;;;;;;;;5911608;28;20052;-74
2023/10/11 04:01:00;;;;;;;4.63;3.88;;;;;;;;;;5915984;28;20055;-72
2023/10/11 04:03:51;;;;;;;4.95;4.03;;;;;;;;;;5935464;28;20565;-72
2023/10/11 04:06:43;;;;;;;11.13;4.82;;;;;;;;;;5920716;28;20044;-73
2023/10/11 04:09:45;;;;;;;6.93;4.47;;;;;;;;;;5911375;28;20044;-72
2023/10/11 04:12:42;;;;;;;9.70;6.15;;;;;;;;;;5902208;28;20048;-72
2023/10/11 04:15:33;;;;;;;7.90;5.53;;;;;;;;;;5911199;28;20048;-72
2023/10/11 04:18:33;;;;;;;5.65;4.38;;;;;;;;;;5911433;28;20056;-72
2023/10/11 04:21:39;;;;;;;6.78;5.57;;;;;;;;;;5910621;28;20048;-71
2023/10/11 04:24:36;;;;;;;8.63;6.05;;;;;;;;;;5911248;28;20076;-72
2023/10/11 04:30:18;;;;;;;10.95;7.13;;;;;;;;;;5910498;28;20052;-72
2023/10/11 04:33:13;;;;;;;8.23;6.20;;;;;;;;;;5902014;28;20053;-72
2023/10/11 04:36:04;;;;;;;9.10;5.93;;;;;;;;;;5893743;28;20540;-73
2023/10/11 04:39:13;;;;;;;8.52;6.47;;;;;;;;;;5911782;28;20498;-72
2023/10/11 04:42:06;;;;;;;9.32;5.70;;;;;;;;;;5920003;28;20524;-72
2023/10/11 04:44:57;;;;;;;18.27;5.97;;;;;;;;;;5916926;28;20067;-73
2023/10/11 04:47:52;;;;;;;13.82;7.95;;;;;;;;;;5911074;28;20068;-72
2023/10/11 04:50:50;;;;;;;8.20;5.35;;;;;;;;;;5910502;28;20423;-73
2023/10/11 05:02:32;;;;;;;9.43;7.10;;;;;;;;;;5913246;28;20078;-72
2023/10/11 05:05:24;;;;;;;9.23;5.00;;;;;;;;;;5905192;28;20052;-73
2023/10/11 05:08:24;;;;;;;7.22;5.25;;;;;;;;;;5910219;28;20044;-72
2023/10/11 05:11:25;;;;;;;6.28;4.70;;;;;;;;;;5893498;28;20130;-72
2023/10/11 05:14:29;;;;;;;12.85;6.68;;;;;;;;;;5934056;28;20051;-71
2023/10/11 05:23:05;;;;;;;6.75;5.68;;;;;;;;;;5909856;28;20045;-73
2023/10/11 05:25:58;;;;;;;8.57;5.38;;;;;;;;;;5910101;28;20047;-73
2023/10/11 05:29:08;;;;;;;7.70;5.32;;;;;;;;;;5910026;28;20095;-72
2023/10/11 05:35:43;;;;;;;9.38;5.15;;;;;;;;;;5932081;28;20048;-72
2023/10/11 05:51:11;;;;;;;8.95;4.63;;;;;;;;;;5887127;28;20052;-71
2023/10/11 05:54:04;;;;;;;7.47;4.38;;;;;;;;;;5899936;28;20045;-72
2023/10/11 05:57:03;;;;;;;6.82;4.57;;;;;;;;;;5906304;28;20140;-71
2023/10/11 05:59:54;;;;;;;7.35;4.93;;;;;;;;;;5914418;28;20049;-71
2023/10/11 06:02:47;;;;;;;9.43;6.05;;;;;;;;;;5915076;28;20542;-72
2023/10/11 06:05:39;;;;;;;9.43;5.35;;;;;;;;;;5913547;28;20036;-73
2023/10/11 06:08:31;;;;;;;7.15;4.97;;;;;;;;;;5917265;28;20052;-72
2023/10/11 06:11:24;;;;;;;5.60;4.10;;;;;;;;;;5924494;28;20064;-72
2023/10/11 06:14:17;;;;;;;7.10;4.65;;;;;;;;;;5913782;28;20049;-73
2023/10/11 06:17:16;;;;;;;7.55;3.83;;;;;;;;;;5913330;28;20480;-71
2023/10/11 06:21:01;;;;;;;6.82;5.68;;;;;;;;;;5921938;28;20408;-72
2023/10/11 06:23:30;;;;;;;3.75;3.08;;;;;;;;;;5897533;28;20036;-71
2023/10/11 06:29:26;;;;;;;6.90;4.95;;;;;;;;;;5889650;28;20041;-71
2023/10/11 06:32:19;;;;;;;4.25;3.58;;;;;;;;;;5869823;28;20076;-73
2023/10/11 06:35:23;;;;;;;7.10;4.13;;;;;;;;;;5877071;28;20143;-72
2023/10/11 06:38:14;;;;;;;7.95;4.22;;;;;;;;;;5903582;28;20059;-72
2023/10/11 06:44:17;;;;;;;3.65;2.90;;;;;;;;;;5903011;28;20044;-72
2023/10/11 06:47:11;;;;;;;4.63;3.42;;;;;;;;;;5898471;28;20045;-72
2023/10/11 06:50:10;;;;;;;7.15;5.22;;;;;;;;;;5894240;28;20051;-73
2023/10/11 06:53:08;;;;;;;7.72;4.63;;;;;;;;;;5873463;28;20476;-73
2023/10/11 06:55:59;;;;;;;6.97;5.40;;;;;;;;;;5864357;28;20054;-73
2023/10/11 06:58:50;;;;;;;8.20;5.28;;;;;;;;;;5888157;28;20506;-72
2023/10/11 07:01:41;;;;;;;12.70;5.68;;;;;;;;;;5897061;28;20488;-72
2023/10/11 07:04:36;;;;;;;13.13;7.35;;;;;;;;;;5889662;28;20052;-72
2023/10/11 07:07:32;;;;;;;12.25;7.40;;;;;;;;;;5889019;28;20393;-74
2023/10/11 07:10:29;;;;;;;14.60;8.13;;;;;;;;;;5878961;28;20718;-72
2023/10/11 07:13:20;;;;;;;12.07;6.03;;;;;;;;;;5912563;28;20072;-72
2023/10/11 07:16:11;;;;;;;16.60;6.85;;;;;;;;;;5912244;28;20040;-72
2023/10/11 07:19:02;;;;;;;10.68;5.97;;;;;;;;;;5912642;28;20044;-73
2023/10/11 07:21:53;;;;;;;8.80;5.28;;;;;;;;;;5915890;28;20049;-72
2023/10/11 07:24:45;;;;;;;6.32;4.60;;;;;;;;;;5912438;28;20041;-72
2023/10/11 07:27:40;;;;;;;8.43;5.82;;;;;;;;;;5911647;28;20055;-72
2023/10/11 07:30:37;;;;;;;15.68;5.28;;;;;;;;;;5911501;28;20045;-73
2023/10/11 07:33:29;;;;;;;13.32;6.40;;;;;;;;;;5912046;28;20071;-72
2023/10/11 07:36:22;;;;;;;21.70;8.68;;;;;;;;;;5911900;28;20068;-73
2023/10/11 07:39:25;;;;;;;6.78;4.15;;;;;;;;;;5911810;28;20071;-72
2023/10/11 07:42:26;;;;;;;17.55;5.75;;;;;;;;;;5895530;28;20045;-72
2023/10/11 07:45:16;;;;;;;;;;;;;;;;;;5911823;28;20829;-73
2023/10/11 07:48:07;;;;;;;8.30;3.97;;;;;;;;;;5912002;28;20302;-72
2023/10/11 07:51:03;;;;;;;7.57;4.53;;;;;;;;;;5911385;28;20115;-72
2023/10/11 07:53:54;;;;;;;6.22;2.85;;;;;;;;;;5888834;28;20432;-72
2023/10/11 07:56:52;;;;;;;16.02;4.25;;;;;;;;;;5887892;28;20423;-72
2023/10/11 07:59:45;;;;;;;4.40;2.83;;;;;;;;;;5878738;28;20045;-72
2023/10/11 08:02:41;;;;;;;4.40;2.88;;;;;;;;;;5886806;28;20064;-72
2023/10/11 08:05:46;;;;;;;5.65;2.40;;;;;;;;;;5887855;28;20127;-74
2023/10/11 08:08:37;;;;;;;3.50;2.17;;;;;;;;;;5879845;28;20049;-72
2023/10/11 08:11:36;;;;;;;8.52;3.35;;;;;;;;;;5876151;28;20415;-73
2023/10/11 08:14:32;;;;;;;3.58;2.40;;;;;;;;;;5911381;28;20045;-72
2023/10/11 08:17:27;;;;;;;6.80;2.92;;;;;;;;;;5891490;28;20053;-72
2023/10/11 08:20:18;;;;;;;6.32;2.50;;;;;;;;;;5887239;28;20131;-72
2023/10/11 08:23:09;;;;;;;4.60;2.30;;;;;;;;;;5893341;28;20048;-73
2023/10/11 08:26:05;;;;;;;7.30;2.33;;;;;;;;;;5887735;28;20041;-72
2023/10/11 08:29:05;;;;;;;4.57;2.20;;;;;;;;;;5911161;28;20486;-72
2023/10/11 08:32:01;;;;;;;5.47;2.20;;;;;;;;;;5923527;28;20036;-71
2023/10/11 08:34:54;;;;;;;5.72;2.92;;;;;;;;;;5934404;28;20040;-73
2023/10/11 08:37:52;;;;;;;4.78;2.53;;;;;;;;;;5911489;28;20051;-73
2023/10/11 08:40:43;;;;;;;3.40;1.98;;;;;;;;;;5908187;28;20051;-71
2023/10/11 08:43:36;;;;;;;2.10;1.40;;;;;;;;;;5908699;28;20087;-72
2023/10/11 08:46:32;;;;;;;5.35;2.03;;;;;;;;;;5881222;28;20518;-72
2023/10/11 08:49:23;;;;;;;1.05;0.98;;;;;;;;;;5878095;28;20060;-73
2023/10/11 08:52:21;;;;;;;3.63;1.75;;;;;;;;;;5858371;28;20049;-74
2023/10/11 08:55:14;;;;;;;6.40;2.28;;;;;;;;;;5850788;28;20063;-72
2023/10/11 08:58:12;;;;;;;5.28;2.22;;;;;;;;;;5910302;28;20175;-72
2023/10/11 09:01:03;;;;;;;1.90;1.30;;;;;;;;;;5875738;28;20045;-71
2023/10/11 09:04:11;;;;;;;3.40;1.73;;;;;;;;;;5871602;28;20053;-72
2023/10/11 09:07:02;;;;;;;2.03;1.52;;;;;;;;;;5902772;28;20036;-73
2023/10/11 09:09:54;;;;;;;4.80;2.42;;;;;;;;;;5910746;28;20637;-72
2023/10/11 09:12:49;;;;;;;6.38;2.20;;;;;;;;;;5909055;28;20038;-70
2023/10/11 09:15:44;;;;;;;7.95;2.92;;;;;;;;;;5904641;28;20071;-71
2023/10/11 09:18:35;;;;;;;6.43;2.13;;;;;;;;;;5886888;28;20144;-72
2023/10/11 09:21:29;;;;;;;3.22;1.92;;;;;;;;;;5886396;28;20072;-72
2023/10/11 09:24:37;;;;;;;4.13;2.53;;;;;;;;;;5886642;28;20041;-72
2023/10/11 09:27:50;;;;;;;3.55;2.20;;;;;;;;;;5908088;28;20052;-71
2023/10/11 09:30:44;;;;;;;6.10;2.92;;;;;;;;;;5909572;28;20135;-73
2023/10/11 09:33:38;;;;;;;2.00;1.40;;;;;;;;;;5888647;28;20392;-72
2023/10/11 09:36:30;;;;;;;5.13;2.53;;;;;;;;;;5868733;28;20045;-72
2023/10/11 09:39:21;;;;;;;3.72;2.30;;;;;;;;;;5881216;28;20087;-73
2023/10/11 09:42:15;;;;;;;4.78;2.15;;;;;;;;;;5886905;28;20052;-73
2023/10/11 09:45:08;;;;;;;6.43;1.73;;;;;;;;;;5926702;28;20140;-73
2023/10/11 09:48:05;;;;;;;5.95;1.23;;;;;;;;;;5910605;28;20048;-72
2023/10/11 09:50:57;;;;;;;4.28;2.22;;;;;;;;;;5909765;28;20127;-72
2023/10/11 09:53:53;;;;;;;9.80;1.95;;;;;;;;;;5921997;28;20048;-71
2023/10/11 09:56:50;;;;;;;2.03;1.25;;;;;;;;;;5917476;28;20104;-71
2023/10/11 10:00:03;;;;;;;3.20;1.90;;;;;;;;;;5891075;28;20403;-72
2023/10/11 10:02:54;;;;;;;5.80;1.48;;;;;;;;;;5893350;28;20055;-72
2023/10/11 10:06:18;;;;;;;6.05;2.45;;;;;;;;;;5926334;28;20127;-72
2023/10/11 10:09:23;;;;;;;8.13;2.60;;;;;;;;;;5909136;28;20120;-72
2023/10/11 10:12:20;;;;;;;8.10;2.67;;;;;;;;;;5914646;28;20440;-74
2023/10/11 10:15:14;;;;;;;4.03;1.80;;;;;;;;;;5931545;28;20146;-73
2023/10/11 10:18:07;;;;;;;3.60;1.95;;;;;;;;;;5909393;28;20472;-72
2023/10/11 10:21:04;;;;;;;10.88;3.83;;;;;;;;;;5909826;28;20052;-74
2023/10/11 10:24:31;;;;;;;4.78;1.67;;;;;;;;;;5928707;28;20058;-72
2023/10/11 10:27:33;;;;;;;5.75;2.22;;;;;;;;;;5908879;28;20049;-74
2023/10/11 10:30:27;;;;;;;3.97;1.55;;;;;;;;;;5907842;28;20044;-72
2023/10/11 10:33:22;;;;;;;5.57;2.13;;;;;;;;;;5894852;28;20128;-72
2023/10/11 10:36:28;;;;;;;15.20;1.60;;;;;;;;;;5913544;28;20143;-72
2023/10/11 10:42:12;;;;;;;21.33;2.67;;;;;;;;;;5913745;28;20052;-72
2023/10/11 10:45:04;;;;;;;2.83;1.27;;;;;;;;;;5913771;28;20492;-72
2023/10/11 10:48:19;;;;;;;4.30;2.38;;;;;;;;;;5914234;28;20037;-72
2023/10/11 10:51:11;;;;;;;4.03;1.40;;;;;;;;;;5913065;28;20055;-73
2023/10/11 10:54:22;;;;;;;3.50;1.77;;;;;;;;;;5913626;28;20064;-72
2023/10/11 10:57:13;;;;;;;3.08;1.98;;;;;;;;;;5898367;28;20057;-73
2023/10/11 11:00:20;;;;;;;2.53;1.75;;;;;;;;;;5895767;28;20052;-72
2023/10/11 11:03:24;;;;;;;1.67;0.95;;;;;;;;;;5913331;28;20127;-73
2023/10/11 11:06:15;;;;;;;3.78;1.70;;;;;;;;;;5879289;28;20138;-72
2023/10/11 11:09:13;;;;;;;3.78;1.52;;;;;;;;;;5913317;28;20062;-74
2023/10/11 11:12:18;;;;;;;;;;;;;;;;;;5896993;28;20123;-73
2023/10/11 11:15:13;;;;;;;1.90;1.40;;;;;;;;;;5896291;28;19924;-73
2023/10/11 11:18:04;;;;;;;12.88;2.05;;;;;;;;;;5895554;28;20037;-72
2023/10/11 11:20:59;;;;;;;6.78;1.90;;;;;;;;;;5895582;28;20055;-73
2023/10/11 11:23:51;;;;;;;2.75;1.27;;;;;;;;;;5913197;28;20041;-72
2023/10/11 11:26:41;;;;;;;8.65;2.33;;;;;;;;;;5913128;28;20044;-73
2023/10/11 11:29:33;;;;;;;4.25;1.92;;;;;;;;;;5912665;28;20048;-72
2023/10/11 11:32:41;;;;;;;3.13;1.35;;;;;;;;;;5912589;28;20056;-74
2023/10/11 11:35:51;;;;;;;2.65;1.67;;;;;;;;;;5895061;28;20510;-74
2023/10/11 11:38:46;;;;;;;5.47;1.58;;;;;;;;;;5896139;28;20045;-72
2023/10/11 11:41:39;;;;;;;1.15;1.00;;;;;;;;;;5912651;28;20056;-73
2023/10/11 11:44:31;;;;;;;17.95;1.75;;;;;;;;;;5912331;28;20103;-73
2023/10/11 11:47:22;;;;;;;4.68;2.00;;;;;;;;;;5911849;28;20063;-72
2023/10/11 11:50:18;;;;;;;3.60;1.67;;;;;;;;;;5912194;28;20072;-73
2023/10/11 11:53:09;;;;;;;7.85;1.05;;;;;;;;;;5894471;28;20059;-73
2023/10/11 11:56:00;;;;;;;29.83;2.05;;;;;;;;;;5912846;28;20044;-73
2023/10/11 11:58:59;;;;;;;9.05;1.58;;;;;;;;;;5912413;28;20052;-72
2023/10/11 12:01:59;;;;;;;4.05;1.67;;;;;;;;;;5912063;28;20484;-74
2023/10/11 12:04:50;;;;;;;19.70;1.58;;;;;;;;;;5912017;28;20089;-74
2023/10/11 12:07:44;;;;;;;9.85;1.30;;;;;;;;;;5911851;28;20151;-72
2023/10/11 12:10:36;;;;;;;9.73;1.75;;;;;;;;;;5894055;28;20052;-74
2023/10/11 12:13:27;;;;;;;1.65;1.10;;;;;;;;;;5911114;28;20198;-73
2023/10/11 12:16:22;;;;;;;3.47;1.33;;;;;;;;;;5911421;28;20127;-72
2023/10/11 12:19:14;;;;;;;2.67;1.70;;;;;;;;;;5910308;28;20049;-73
2023/10/11 12:22:05;;;;;;;3.83;1.65;;;;;;;;;;5891261;28;20051;-73
2023/10/11 12:24:59;;;;;;;6.00;1.65;;;;;;;;;;5909662;28;20044;-73
2023/10/11 12:27:51;;;;;;;3.45;0.82;;;;;;;;;;5909114;28;20040;-72
2023/10/11 12:30:45;;;;;;;2.63;1.23;;;;;;;;;;5909196;28;20055;-73
2023/10/11 12:33:36;;;;;;;1.42;1.00;;;;;;;;;;5910380;28;20130;-73
2023/10/11 12:36:28;;;;;;;18.38;2.65;;;;;;;;;;5911508;28;20064;-72
2023/10/11 12:39:20;;;;;;;6.70;1.92;;;;;;;;;;5911447;28;20095;-74
2023/10/11 12:42:11;;;;;;;9.68;1.88;;;;;;;;;;5911234;28;20372;-72
2023/10/11 12:45:07;;;;;;;6.65;1.63;;;;;;;;;;5911194;28;20044;-72
2023/10/11 12:47:58;;;;;;;7.70;1.75;;;;;;;;;;5911470;28;20066;-73
2023/10/11 12:50:49;;;;;;;4.68;2.05;;;;;;;;;;5911006;28;20131;-75
2023/10/11 12:53:43;;;;;;;5.18;1.52;;;;;;;;;;5910887;28;20178;-73
2023/10/11 12:56:34;;;;;;;21.42;1.13;;;;;;;;;;5910783;28;20116;-73
2023/10/11 12:59:24;;;;;;;3.53;1.20;;;;;;;;;;5911066;28;20049;-73
2023/10/11 13:02:21;;;;;;;6.45;1.83;;;;;;;;;;5910679;28;20071;-73
2023/10/11 13:05:12;;;;;;;4.22;1.20;;;;;;;;;;5910963;28;20040;-74
2023/10/11 13:08:03;;;;;;;12.27;3.70;;;;;;;;;;5911123;28;20146;-72
2023/10/11 13:10:54;;;;;;;12.02;2.25;;;;;;;;;;5911043;28;20051;-72
2023/10/11 13:13:44;;;;;;;3.50;1.85;;;;;;;;;;5910535;28;20411;-73
2023/10/11 13:16:38;;;;;;;5.28;1.40;;;;;;;;;;5910592;28;20049;-73
2023/10/11 13:19:30;;;;;;;3.65;1.42;;;;;;;;;;5910583;28;20044;-72
2023/10/11 13:22:21;;;;;;;8.85;2.05;;;;;;;;;;5892646;28;20056;-73
2023/10/11 13:25:23;;;;;;;9.30;2.13;;;;;;;;;;5910326;28;20044;-73
2023/10/11 13:28:26;;;;;;;10.75;2.15;;;;;;;;;;5910594;28;20064;-72
2023/10/11 13:31:17;;;;;;;3.88;1.38;;;;;;;;;;5929675;28;20055;-72
2023/10/11 13:34:08;;;;;;;4.97;2.13;;;;;;;;;;5933461;28;20051;-73
2023/10/11 13:37:00;;;;;;;3.25;1.40;;;;;;;;;;5934510;28;20392;-71
2023/10/11 13:39:51;;;;;;;1.73;1.10;;;;;;;;;;5933891;28;20063;-72
2023/10/11 13:42:43;;;;;;;4.63;1.50;;;;;;;;;;5933900;28;20085;-72
2023/10/11 13:45:40;;;;;;;5.05;1.90;;;;;;;;;;5934033;28;20040;-73
2023/10/11 13:48:37;;;;;;;3.50;1.48;;;;;;;;;;5916867;28;20121;-73
2023/10/11 13:51:30;;;;;;;4.50;1.73;;;;;;;;;;5934089;28;20067;-73
2023/10/11 13:54:49;;;;;;;15.98;2.95;;;;;;;;;;5933937;28;20526;-73
2023/10/11 13:57:41;;;;;;;2.88;1.67;;;;;;;;;;5919108;28;20067;-72
2023/10/11 14:03:46;;;;;;;4.50;2.00;;;;;;;;;;5922137;28;20487;-73
2023/10/11 14:07:22;;;;;;;8.95;2.13;;;;;;;;;;5938488;28;20071;-72
2023/10/11 14:10:15;;;;;;;8.60;1.67;;;;;;;;;;5938150;28;20121;-73
2023/10/11 14:13:09;;;;;;;19.80;11.15;;;;;;;;;;5938260;28;20407;-73
2023/10/11 14:16:04;;;;;;;8.75;3.67;;;;;;;;;;5938925;28;20398;-73
2023/10/11 14:18:55;;;;;;;3.92;1.58;;;;;;;;;;5938306;28;20046;-74
2023/10/11 14:21:47;;;;;;;3.38;1.85;;;;;;;;;;5920133;28;20479;-73
2023/10/11 14:24:39;;;;;;;8.63;1.98;;;;;;;;;;5920266;28;20044;-74
2023/10/11 14:27:30;;;;;;;4.30;2.10;;;;;;;;;;5937995;28;20433;-72
2023/10/11 14:30:21;;;;;;;5.93;2.78;;;;;;;;;;5937826;28;20062;-74
2023/10/11 14:33:20;;;;;;;5.25;1.77;;;;;;;;;;5937948;28;20048;-73
2023/10/11 14:36:12;;;;;;;4.03;2.22;;;;;;;;;;5937652;28;20044;-73
2023/10/11 14:39:09;;;;;;;4.47;2.58;;;;;;;;;;5937317;28;20040;-72
2023/10/11 14:42:00;;;;;;;4.53;2.13;;;;;;;;;;5938534;28;20052;-73
2023/10/11 14:44:50;;;;;;;12.93;2.67;;;;;;;;;;5937856;28;20044;-73
2023/10/11 14:47:46;;;;;;;6.00;2.30;;;;;;;;;;5936308;28;20390;-74
2023/10/11 14:50:38;;;;;;;3.67;1.90;;;;;;;;;;5937401;28;20048;-73
2023/10/11 14:53:29;;;;;;;4.43;2.88;;;;;;;;;;5919404;28;20138;-73
2023/10/11 14:56:20;;;;;;;4.28;2.35;;;;;;;;;;5937320;28;20040;-73
2023/10/11 14:59:12;;;;;;;4.68;2.55;;;;;;;;;;5937563;28;20051;-73
2023/10/11 15:02:04;;;;;;;6.95;3.05;;;;;;;;;;5936905;28;20166;-74
2023/10/11 15:04:57;;;;;;;11.90;5.38;;;;;;;;;;5937548;28;20059;-72
2023/10/11 15:07:53;;;;;;;9.73;5.60;;;;;;;;;;5937220;28;20044;-71
2023/10/11 15:10:45;;;;;;;9.82;3.30;;;;;;;;;;5936473;28;20063;-73
2023/10/11 15:13:36;;;;;;;10.65;4.10;;;;;;;;;;5918342;28;20040;-73
2023/10/11 15:16:27;;;;;;;8.27;3.22;;;;;;;;;;5936814;28;20500;-72
2023/10/11 15:19:19;;;;;;;2.03;1.67;;;;;;;;;;5936902;28;20055;-72
2023/10/11 15:22:13;;;;;;;4.15;2.00;;;;;;;;;;5936680;28;20500;-71
2023/10/11 15:25:11;;;;;;;2.75;1.50;;;;;;;;;;5936695;28;20048;-73
2023/10/11 15:28:05;;;;;;;8.90;2.65;;;;;;;;;;5935569;28;20051;-74
2023/10/11 15:31:03;;;;;;;20.77;4.05;;;;;;;;;;5937128;28;20376;-73
2023/10/11 15:33:53;;;;;;;14.98;5.57;;;;;;;;;;5936823;28;20039;-73
2023/10/11 15:36:45;;;;;;;9.18;5.15;;;;;;;;;;5936634;28;20036;-74
2023/10/11 15:39:35;;;;;;;8.23;3.58;;;;;;;;;;5936767;28;20105;-73
2023/10/11 15:42:28;;;;;;;12.13;4.65;;;;;;;;;;5936608;28;20051;-72
2023/10/11 15:45:19;;;;;;;8.75;3.78;;;;;;;;;;5936584;28;20051;-74
2023/10/11 15:48:10;;;;;;;6.82;3.42;;;;;;;;;;5936377;28;20491;-73
2023/10/11 15:51:18;;;;;;;21.17;9.00;;;;;;;;;;5936826;28;20052;-73
2023/10/11 15:54:09;;;;;;;23.25;8.90;;;;;;;;;;5935932;28;20123;-73
2023/10/11 15:57:00;;;;;;;13.93;6.10;;;;;;;;;;5936576;28;20114;-73
2023/10/11 15:59:52;;;;;;;21.85;4.97;;;;;;;;;;5936279;28;20126;-74
2023/10/11 16:02:44;;;;;;;13.02;6.20;;;;;;;;;;5935883;28;20060;-73
2023/10/11 16:05:37;;;;;;;17.42;9.45;;;;;;;;;;5935865;28;20387;-73
2023/10/11 16:08:29;;;;;;;34.58;14.15;;;;;;;;;;5934675;28;20052;-73
2023/10/11 16:11:21;;;;;;;38.20;18.35;;;;;;;;;;5935653;28;20487;-74
2023/10/11 16:14:13;;;;;;;40.15;20.30;;;;;;;;;;5935830;28;20055;-73
2023/10/11 16:17:04;;;;;;;32.63;15.57;;;;;;;;;;5935478;28;20048;-73
2023/10/11 16:19:57;;;;;;;13.10;7.70;;;;;;;;;;5918199;28;20047;-72
2023/10/11 16:22:47;;;;;;;14.65;7.60;;;;;;;;;;5935236;28;20077;-72
2023/10/11 16:25:38;;;;;;;23.50;7.00;;;;;;;;;;5935421;28;20048;-72
2023/10/11 16:28:29;;;;;;;26.50;7.55;;;;;;;;;;5935559;28;20052;-73
2023/10/11 16:31:20;;;;;;;20.42;6.22;;;;;;;;;;5935146;28;20051;-72
2023/10/11 16:34:11;;;;;;;18.30;9.45;;;;;;;;;;5934026;28;20071;-72
2023/10/11 16:37:05;;;;;;;18.02;10.05;;;;;;;;;;5935436;28;20529;-73
2023/10/11 16:39:56;;;;;;;12.70;6.85;;;;;;;;;;5935815;28;20130;-73
2023/10/11 16:42:47;;;;;;;19.58;6.90;;;;;;;;;;5935209;28;20505;-72
2023/10/11 16:45:42;;;;;;;9.32;4.63;;;;;;;;;;5917325;28;20178;-73
2023/10/11 16:48:33;;;;;;;12.98;5.50;;;;;;;;;;5934804;28;20399;-73
2023/10/11 16:51:24;;;;;;;12.02;5.13;;;;;;;;;;5934855;28;20410;-73
2023/10/11 16:54:16;;;;;;;11.13;6.10;;;;;;;;;;5933964;28;20090;-73
2023/10/11 16:57:08;;;;;;;15.00;4.60;;;;;;;;;;5934576;28;20048;-72
2023/10/11 16:59:59;;;;;;;8.07;3.63;;;;;;;;;;5935463;28;20082;-72
2023/10/11 17:02:50;;;;;;;17.45;4.47;;;;;;;;;;5934975;28;20051;-72
2023/10/11 17:05:42;;;;;;;13.65;6.32;;;;;;;;;;5934760;28;20036;-73
2023/10/11 17:08:35;;;;;;;9.52;5.25;;;;;;;;;;5934648;28;20040;-73
2023/10/11 17:11:25;;;;;;;10.00;5.53;;;;;;;;;;5934607;28;20044;-72
2023/10/11 17:14:17;;;;;;;35.50;13.82;;;;;;;;;;5934604;28;20051;-74
2023/10/11 17:17:09;;;;;;;33.47;17.17;;;;;;;;;;5916843;28;20040;-74
2023/10/11 17:20:15;;;;;;;23.75;10.45;;;;;;;;;;5933216;28;20048;-73
2023/10/11 17:23:06;;;;;;;16.20;7.80;;;;;;;;;;5917182;28;20047;-73
2023/10/11 17:26:08;;;;;;;52.60;14.02;;;;;;;;;;5935024;28;20044;-73
2023/10/11 17:29:05;;;;;;;33.40;12.02;;;;;;;;;;5933971;28;20052;-73
2023/10/11 17:31:56;;;;;;;11.02;6.45;;;;;;;;;;5934278;28;20044;-74
2023/10/11 17:34:47;;;;;;;11.68;6.13;;;;;;;;;;5933560;28;20419;-74
2023/10/11 17:37:38;;;;;;;18.88;5.18;;;;;;;;;;5934129;28;20429;-73
2023/10/11 17:40:29;;;;;;;9.75;4.03;;;;;;;;;;5934247;28;20059;-73
2023/10/11 17:43:21;;;;;;;13.60;3.15;;;;;;;;;;5933209;28;20048;-72
2023/10/11 17:46:12;;;;;;;11.65;4.80;;;;;;;;;;5934031;28;20041;-72
2023/10/11 17:49:04;;;;;;;7.90;3.72;;;;;;;;;;5934486;28;20131;-73
2023/10/11 17:51:56;;;;;;;14.55;3.92;;;;;;;;;;5934682;28;20046;-74
2023/10/11 17:54:49;;;;;;;6.00;3.20;;;;;;;;;;5934233;28;20040;-73
2023/10/11 17:57:44;;;;;;;18.33;4.85;;;;;;;;;;5934228;28;20048;-73
2023/10/11 18:00:37;;;;;;;8.68;6.20;;;;;;;;;;5934080;28;20364;-73
2023/10/11 18:03:29;;;;;;;10.65;4.70;;;;;;;;;;5933749;28;20383;-72
2023/10/11 18:06:21;;;;;;;15.73;4.85;;;;;;;;;;5934169;28;20121;-73
2023/10/11 18:09:12;;;;;;;6.70;3.63;;;;;;;;;;5933809;28;20097;-73